METAR AND TAF INFORMATION
METAR FOR EEPU
ADDS - METARS form results

(1100 UTC 03 October 2022)
Data provider http://aviationweather.gov/metar/data/
 
METAR text: EEPU 031050Z AUTO 01011KT 330V030 9999 SCT025/// OVC150/// 11/06 Q1007
Conditions at: EEPU (PARNU , EE) observed 1050 UTC 03 October 2022
Temperature: 11.0°C (52°F)
Dewpoint: 6.0°C (43°F) [RH = 71%]
Pressure (altimeter): 29.73 inches Hg (1007.0 mb)
Winds: from the N (10 degrees) at 13 MPH (11 knots; 5.7 m/s)
Visibility: 6 or more miles (10+ km)
Ceiling: 15000 feet AGL
Clouds: scattered clouds at 2500 feet AGL
overcast cloud deck at 15000 feet AGL
Weather: no significant weather observed at this time

METAR text: EEPU 031020Z AUTO 01011KT 330V040 9999 SCT026/// OVC150/// 11/06 Q1007
Conditions at: EEPU (PARNU , EE) observed 1020 UTC 03 October 2022
Temperature: 11.0°C (52°F)
Dewpoint: 6.0°C (43°F) [RH = 71%]
Pressure (altimeter): 29.73 inches Hg (1007.0 mb)
Winds: from the N (10 degrees) at 13 MPH (11 knots; 5.7 m/s)
Visibility: 6 or more miles (10+ km)
Ceiling: 15000 feet AGL
Clouds: scattered clouds at 2600 feet AGL
overcast cloud deck at 15000 feet AGL
Weather: no significant weather observed at this time

 AIRPORT MAP

 RUNWAY INFORMATION
Runway 03 Runway length 8136 ft Runway width 148 ft
Runway elevation 21 ft Runway displaced threshold 0 ft Runway heading 35
Runway 21 Runway length 8136 ft Runway width 148 ft
Runway elevation 47 ft Runway displaced threshold 0 ft Runway heading 215

 AIRPORT FREQUENCIES
Type AFIS Name AFIS Frequency 132 MHZ

 AIRPORT NEAR NAVIGATION AIDS
Type VOR-DME Name Parnu Frequency 115900 KHZ
Type NDB Name Parnu Frequency 376 KHZ
Type NDB Name Parnu Frequency 425 KHZ





Powered by Virtual Airlines Manager

Maps by Rafael Santos